Time;durP1;ratioP1;P1;durP2;ratioP2;P2;SDS_P1;SDS_P2;PMS_P1;PMS_P2;Temp;Humidity;BMP_temperature;BMP_pressure;BME280_temperature;BME280_humidity;BME280_pressure;Samples;Min_cycle;Max_cycle;Signal;HPM_P1;HPM_P2
2023/10/01 00:00:10;;;;;;;0.00;0.00;;;;;;;16.09;100.00;102237.94;5107222;28;20088;-45
2023/10/01 00:02:36;;;;;;;0.00;0.00;;;;;;;16.11;100.00;102241.34;5105100;28;20035;-44
2023/10/01 00:05:03;;;;;;;0.00;0.00;;;;;;;16.11;100.00;102244.06;5106657;28;20285;-45
2023/10/01 00:07:29;;;;;;;0.00;0.00;;;;;;;16.17;100.00;102246.06;5106654;28;20530;-47
2023/10/01 00:09:54;;;;;;;0.00;0.00;;;;;;;16.17;100.00;102238.75;5106121;28;20027;-45
2023/10/01 00:12:23;;;;;;;0.00;0.00;;;;;;;16.18;100.00;102237.69;5106514;28;20541;-47
2023/10/01 00:14:52;;;;;;;0.00;0.00;;;;;;;16.15;100.00;102248.09;5106388;28;20032;-45
2023/10/01 00:17:18;;;;;;;0.00;0.00;;;;;;;16.11;100.00;102252.19;5106653;28;20427;-45
2023/10/01 00:19:45;;;;;;;0.00;0.00;;;;;;;16.05;100.00;102247.50;5106385;28;20024;-47
2023/10/01 00:22:10;;;;;;;0.00;0.00;;;;;;;15.94;100.00;102249.63;5106485;28;20599;-49
2023/10/01 00:24:35;;;;;;;0.00;0.00;;;;;;;15.95;100.00;102253.19;5105480;27;20318;-45
2023/10/01 00:27:01;;;;;;;0.00;0.00;;;;;;;15.91;100.00;102247.28;5105361;28;20035;-50
2023/10/01 00:29:27;;;;;;;0.00;0.00;;;;;;;15.91;100.00;102236.44;5105999;28;20135;-44
2023/10/01 00:31:52;;;;;;;0.00;0.00;;;;;;;15.88;100.00;102236.81;5106192;28;20035;-45
2023/10/01 00:34:18;;;;;;;0.00;0.00;;;;;;;15.86;100.00;102233.41;5106280;28;20023;-44
2023/10/01 00:36:44;;;;;;;0.00;0.00;;;;;;;15.84;100.00;102227.31;5106665;28;20050;-46
2023/10/01 00:39:09;;;;;;;0.00;0.00;;;;;;;15.83;100.00;102222.94;5106129;27;20558;-48
2023/10/01 00:41:35;;;;;;;0.00;0.00;;;;;;;15.82;100.00;102226.66;5105818;28;21028;-43
2023/10/01 00:44:04;;;;;;;0.00;0.00;;;;;;;15.78;100.00;102233.50;5105605;28;20576;-45
2023/10/01 00:46:31;;;;;;;0.00;0.00;;;;;;;15.77;100.00;102226.34;5106560;27;20029;-48
2023/10/01 00:49:00;;;;;;;0.00;0.00;;;;;;;15.78;100.00;102228.06;5105070;28;20039;-45
2023/10/01 00:51:25;;;;;;;0.00;0.00;;;;;;;15.79;100.00;102230.59;5103823;28;20031;-45
2023/10/01 00:53:52;;;;;;;0.00;0.00;;;;;;;15.75;100.00;102231.16;5098024;28;20027;-46
2023/10/01 00:56:20;;;;;;;0.00;0.00;;;;;;;15.77;100.00;102226.34;5106472;28;20051;-45
2023/10/01 00:58:45;;;;;;;0.00;0.00;;;;;;;15.74;100.00;102224.00;5103145;28;20507;-45
2023/10/01 01:01:12;;;;;;;0.00;0.00;;;;;;;15.64;100.00;102228.81;5104196;28;20154;-47
2023/10/01 01:03:38;;;;;;;0.00;0.00;;;;;;;15.70;100.00;102222.72;5102905;28;20077;-48
2023/10/01 01:06:17;;;;;;;0.00;0.00;;;;;;;15.69;100.00;102216.44;5103226;28;20032;-43
2023/10/01 01:08:46;;;;;;;0.00;0.00;;;;;;;15.73;100.00;102211.47;5106170;28;20028;-47
2023/10/01 01:11:15;;;;;;;0.00;0.00;;;;;;;15.73;100.00;102214.19;5101985;28;20039;-46
2023/10/01 01:13:43;;;;;;;0.00;0.00;;;;;;;15.72;100.00;102210.66;5105260;28;20386;-47
2023/10/01 01:16:13;;;;;;;0.00;0.00;;;;;;;15.70;100.00;102204.53;5105079;28;20039;-47
2023/10/01 01:18:42;;;;;;;0.00;0.00;;;;;;;15.61;100.00;102202.88;5103519;28;20110;-43
2023/10/01 01:21:10;;;;;;;0.00;0.00;;;;;;;15.65;100.00;102206.09;5102438;28;20042;-42
2023/10/01 01:23:36;;;;;;;0.00;0.00;;;;;;;15.65;100.00;102211.53;5104359;28;20501;-46
2023/10/01 01:26:02;;;;;;;0.00;0.00;;;;;;;15.65;100.00;102203.38;5104331;28;20046;-46
2023/10/01 01:28:30;;;;;;;0.00;0.00;;;;;;;15.65;100.00;102198.78;5103642;28;20049;-46
2023/10/01 01:30:59;;;;;;;0.00;0.00;;;;;;;15.71;100.00;102199.97;5104443;28;20043;-46
2023/10/01 01:33:31;;;;;;;0.00;0.00;;;;;;;15.68;100.00;102198.41;5104255;28;20039;-45
2023/10/01 01:36:06;;;;;;;0.00;0.00;;;;;;;15.61;100.00;102196.63;5105515;28;20028;-47
2023/10/01 01:38:36;;;;;;;0.00;0.00;;;;;;;15.65;100.00;102196.06;5101146;28;20489;-49
2023/10/01 01:41:04;;;;;;;0.00;0.00;;;;;;;15.65;100.00;102196.06;5104635;28;20031;-44
2023/10/01 01:43:31;;;;;;;0.00;0.00;;;;;;;15.59;100.00;102194.94;5104203;28;20031;-47
2023/10/01 01:46:00;;;;;;;0.00;0.00;;;;;;;15.58;100.00;102192.38;5104555;28;20595;-45
2023/10/01 01:50:55;;;;;;;0.00;0.00;;;;;;;15.63;100.00;102197.28;5105267;28;20020;-44
2023/10/01 01:53:26;;;;;;;0.00;0.00;;;;;;;15.67;100.00;102190.47;5101469;28;20031;-46
2023/10/01 01:55:56;;;;;;;0.00;0.00;;;;;;;15.69;100.00;102193.84;5100528;28;20023;-47
2023/10/01 01:58:25;;;;;;;0.00;0.00;;;;;;;15.66;100.00;102188.78;5101223;28;20474;-45
2023/10/01 02:03:39;;;;;;;0.00;0.00;;;;;;;15.68;100.00;102187.56;5105416;28;20101;-48
2023/10/01 02:06:06;;;;;;;0.00;0.00;;;;;;;15.66;100.00;102186.88;5107929;28;20500;-50
2023/10/01 02:08:44;;;;;;;0.00;0.00;;;;;;;15.70;100.00;102184.72;5108811;28;20401;-48
2023/10/01 02:11:09;;;;;;;0.00;0.00;;;;;;;15.75;100.00;102187.72;5108867;27;20480;-46
2023/10/01 02:13:40;;;;;;;0.00;0.00;;;;;;;15.72;100.00;102179.94;5108045;28;20031;-46
2023/10/01 02:16:18;;;;;;;0.00;0.00;;;;;;;15.68;100.00;102184.00;5108218;28;20051;-45
2023/10/01 02:18:55;;;;;;;0.00;0.00;;;;;;;15.66;100.00;102188.78;5109265;28;20042;-47
2023/10/01 02:21:42;;;;;;;0.00;0.00;;;;;;;15.68;100.00;102181.28;5108750;28;20061;-45
2023/10/01 02:24:14;;;;;;;0.00;0.00;;;;;;;15.69;100.00;102180.28;5108853;28;20614;-45
2023/10/01 02:26:42;;;;;;;0.00;0.00;;;;;;;15.70;100.00;102182.84;5109213;28;20046;-44
2023/10/01 02:29:15;;;;;;;0.00;0.00;;;;;;;15.67;100.00;102176.91;5108138;28;20031;-45
2023/10/01 02:31:47;;;;;;;0.00;0.00;;;;;;;15.65;100.00;102170.81;5109377;28;20032;-46
2023/10/01 02:34:14;;;;;;;0.00;0.00;;;;;;;15.66;100.00;102181.47;5108659;27;20539;-46
2023/10/01 02:36:42;;;;;;;0.00;0.00;;;;;;;15.61;100.00;102180.31;5109248;28;20385;-45
2023/10/01 02:39:20;;;;;;;0.00;0.00;;;;;;;15.62;100.00;102180.16;5108695;28;20382;-48
2023/10/01 02:42:09;;;;;;;0.00;0.00;;;;;;;15.65;100.00;102177.06;5108694;28;20148;-46
2023/10/01 02:44:39;;;;;;;0.00;0.00;;;;;;;15.57;100.00;102178.00;5107790;28;20255;-48
2023/10/01 02:47:16;;;;;;;0.00;0.00;;;;;;;15.59;100.00;102178.66;5107936;28;20038;-47
2023/10/01 02:49:52;;;;;;;0.00;0.00;;;;;;;15.61;100.00;102185.75;5109197;28;20503;-44
2023/10/01 02:52:19;;;;;;;0.00;0.00;;;;;;;15.58;100.00;102179.66;5107415;28;20413;-46
2023/10/01 02:54:47;;;;;;;0.00;0.00;;;;;;;15.59;100.00;102177.81;5107291;28;20035;-45
2023/10/01 02:57:13;;;;;;;0.00;0.00;;;;;;;15.65;100.00;102181.66;5109171;27;20023;-46
2023/10/01 03:00:20;;;;;;;0.00;0.00;;;;;;;15.65;100.00;102176.25;5108265;28;20058;-47
2023/10/01 03:02:25;;;;;;;0.00;0.00;;;;;;;15.63;100.00;102178.28;5105624;28;20054;-43
2023/10/01 03:04:51;;;;;;;0.00;0.00;;;;;;;15.64;100.00;102166.38;5106176;28;20027;-48
2023/10/01 03:07:17;;;;;;;0.00;0.00;;;;;;;15.59;100.00;102173.22;5107185;27;20027;-46
2023/10/01 03:09:43;;;;;;;0.00;0.00;;;;;;;15.58;100.00;102168.81;5106938;28;20087;-44
2023/10/01 03:17:47;;;;;;;0.00;0.00;;;;;;;15.58;100.00;102176.94;5107684;28;20067;-44
2023/10/01 03:20:19;;;;;;;0.00;0.00;;;;;;;15.63;100.00;102172.84;5107949;28;20040;-45
2023/10/01 03:22:52;;;;;;;0.00;0.00;;;;;;;15.63;100.00;102178.28;5102591;28;20114;-47
2023/10/01 03:25:28;;;;;;;0.00;0.00;;;;;;;15.65;100.00;102177.06;5107139;28;20028;-50
2023/10/01 03:27:58;;;;;;;0.00;0.00;;;;;;;15.61;100.00;102173.03;5106775;28;20027;-45
2023/10/01 03:30:23;;;;;;;0.00;0.00;;;;;;;15.63;100.00;102173.69;5107484;28;20130;-48
2023/10/01 03:32:49;;;;;;;0.00;0.00;;;;;;;15.66;100.00;102167.91;5107340;28;20482;-47
2023/10/01 03:35:14;;;;;;;0.00;0.00;;;;;;;15.59;100.00;102167.81;5107364;28;20093;-47
2023/10/01 03:37:40;;;;;;;0.00;0.00;;;;;;;15.67;100.00;102163.34;5108183;28;20028;-47
2023/10/01 03:40:22;;;;;;;0.00;0.00;;;;;;;15.67;100.00;102158.75;5106780;28;20107;-47
2023/10/01 03:42:51;;;;;;;0.00;0.00;;;;;;;15.59;100.00;102162.38;5106847;28;20019;-45
2023/10/01 03:47:58;;;;;;;0.00;0.00;;;;;;;15.71;100.00;102154.66;5107107;28;20035;-45
2023/10/01 03:50:26;;;;;;;0.00;0.00;;;;;;;15.73;100.00;102158.03;5106784;28;20520;-46
2023/10/01 03:52:54;;;;;;;0.00;0.00;;;;;;;15.72;100.00;102159.06;5106254;28;20653;-48
2023/10/01 03:55:30;;;;;;;0.00;0.00;;;;;;;15.72;100.00;102156.34;5104801;27;20027;-43
2023/10/01 04:00:34;;;;;;;0.00;0.00;;;;;;;15.70;100.00;102157.56;5106831;28;20047;-49
2023/10/01 04:03:00;;;;;;;0.00;0.00;;;;;;;15.71;100.00;102160.09;5105748;28;20024;-48
2023/10/01 04:05:34;;;;;;;0.00;0.00;;;;;;;15.73;100.00;102157.19;5106712;28;20492;-44
2023/10/01 04:08:06;;;;;;;0.00;0.00;;;;;;;15.76;100.00;102154.09;5100535;28;20110;-45
2023/10/01 04:10:31;;;;;;;0.00;0.00;;;;;;;15.69;100.00;102154.03;5105447;27;20103;-44
2023/10/01 04:13:11;;;;;;;0.00;0.00;;;;;;;15.75;100.00;102161.41;5103860;28;20024;-47
2023/10/01 04:15:41;;;;;;;0.00;0.00;;;;;;;15.79;100.00;102157.28;5105205;27;20038;-52
2023/10/01 04:23:32;;;;;;;0.00;0.00;;;;;;;15.79;100.00;102156.44;5098899;28;20316;-46
2023/10/01 04:26:08;;;;;;;0.00;0.00;;;;;;;15.82;100.00;102160.66;5098579;28;20027;-44
2023/10/01 04:28:41;;;;;;;0.00;0.00;;;;;;;15.76;100.00;102160.38;5101143;28;20252;-44
2023/10/01 04:31:09;;;;;;;0.00;0.00;;;;;;;15.79;100.00;102159.16;5102099;28;20031;-46
2023/10/01 04:33:36;;;;;;;0.00;0.00;;;;;;;15.81;100.00;102165.25;5102456;28;20499;-46
2023/10/01 04:36:02;;;;;;;0.00;0.00;;;;;;;15.82;100.00;102161.50;5104056;28;20032;-48
2023/10/01 04:38:32;;;;;;;0.00;0.00;;;;;;;15.76;100.00;102157.66;5104249;28;20141;-44
2023/10/01 04:41:03;;;;;;;0.00;0.00;;;;;;;15.76;100.00;102159.53;5103926;27;20420;-42
2023/10/01 04:43:34;;;;;;;0.00;0.00;;;;;;;15.77;100.00;102175.66;5103926;28;20035;-48
2023/10/01 04:46:00;;;;;;;0.00;0.00;;;;;;;15.82;100.00;102168.81;5103540;28;20563;-45
2023/10/01 04:48:26;;;;;;;0.00;0.00;;;;;;;15.79;100.00;102167.31;5103230;28;20028;-45
2023/10/01 04:50:53;;;;;;;0.00;0.00;;;;;;;15.78;100.00;102160.19;5104411;28;20055;-47
2023/10/01 04:53:27;;;;;;;0.00;0.00;;;;;;;15.80;100.00;102158.16;5102506;28;20032;-48
2023/10/01 04:56:00;;;;;;;0.00;0.00;;;;;;;15.84;100.00;102145.88;5100115;28;20031;-46
2023/10/01 04:58:29;;;;;;;0.00;0.00;;;;;;;15.90;100.00;102152.44;5101814;28;20039;-49
2023/10/01 05:00:56;;;;;;;0.00;0.00;;;;;;;15.82;100.00;102150.66;5102109;28;20078;-46
2023/10/01 05:03:38;;;;;;;0.00;0.00;;;;;;;15.80;100.00;102158.16;5100978;28;20103;-46
2023/10/01 05:06:06;;;;;;;0.00;0.00;;;;;;;15.81;100.00;102157.13;5098259;28;20773;-48
2023/10/01 05:08:38;;;;;;;0.00;0.00;;;;;;;15.87;100.00;102160.97;5098539;28;20032;-47
2023/10/01 05:11:04;;;;;;;0.00;0.00;;;;;;;15.83;100.00;102165.94;5097776;28;20051;-43
2023/10/01 05:13:31;;;;;;;0.00;0.00;;;;;;;15.80;100.00;102161.72;5098301;28;20122;-46
2023/10/01 05:15:56;;;;;;;0.00;0.00;;;;;;;15.77;100.00;102166.63;5097650;28;20602;-46
2023/10/01 05:18:28;;;;;;;0.00;0.00;;;;;;;15.76;100.00;102171.22;5099851;28;20031;-44
2023/10/01 05:20:58;;;;;;;0.00;0.00;;;;;;;15.73;100.00;102174.31;5098956;28;20040;-45
2023/10/01 05:23:26;;;;;;;0.00;0.00;;;;;;;15.74;100.00;102172.44;5098129;27;20168;-45
2023/10/01 05:25:56;;;;;;;0.00;0.00;;;;;;;15.77;100.00;102172.06;5101099;28;20031;-48
2023/10/01 05:28:31;;;;;;;0.00;0.00;;;;;;;15.74;100.00;102169.72;5101224;28;20390;-49
2023/10/01 05:31:00;;;;;;;0.00;0.00;;;;;;;15.70;100.00;102180.13;5101904;28;20032;-46
2023/10/01 05:33:27;;;;;;;0.00;0.00;;;;;;;15.71;100.00;102172.81;5101822;28;20648;-46
2023/10/01 05:35:57;;;;;;;0.00;0.00;;;;;;;15.67;100.00;102174.19;5103018;28;20023;-48
2023/10/01 05:38:26;;;;;;;0.00;0.00;;;;;;;15.70;100.00;102174.69;5102000;28;20035;-46
2023/10/01 05:40:54;;;;;;;0.00;0.00;;;;;;;15.72;100.00;102172.66;5101021;28;20161;-44
2023/10/01 05:43:23;;;;;;;0.00;0.00;;;;;;;15.79;100.00;102176.28;5104690;28;20088;-44
2023/10/01 05:45:52;;;;;;;0.00;0.00;;;;;;;15.75;100.00;102171.44;5106648;28;20051;-45
2023/10/01 05:48:23;;;;;;;0.00;0.00;;;;;;;15.75;100.00;102182.28;5107175;28;20153;-45
2023/10/01 05:50:49;;;;;;;0.00;0.00;;;;;;;15.75;100.00;102179.56;5105593;28;20061;-45
2023/10/01 05:53:17;;;;;;;0.00;0.00;;;;;;;15.75;100.00;102179.56;5105451;28;20107;-45
2023/10/01 05:55:43;;;;;;;0.00;0.00;;;;;;;15.67;100.00;102187.75;5108132;27;20027;-48
2023/10/01 05:58:16;;;;;;;0.00;0.00;;;;;;;15.68;100.00;102176.69;5105807;28;20043;-46
2023/10/01 06:00:45;;;;;;;0.00;0.00;;;;;;;15.67;100.00;102185.06;5106227;27;20504;-47
2023/10/01 06:03:15;;;;;;;0.00;0.00;;;;;;;15.64;100.00;102179.97;5107185;28;20085;-45
2023/10/01 06:05:49;;;;;;;0.00;0.00;;;;;;;15.67;100.00;102176.91;5107933;28;20054;-46
2023/10/01 06:08:17;;;;;;;0.00;0.00;;;;;;;15.63;100.00;102172.84;5103821;28;20031;-44
2023/10/01 06:11:05;;;;;;;0.00;0.00;;;;;;;15.62;100.00;102184.75;5105601;27;20050;-47
2023/10/01 06:13:33;;;;;;;0.00;0.00;;;;;;;15.63;100.00;102178.28;5104384;28;20056;-45
2023/10/01 06:16:11;;;;;;;;;;;;;;;15.59;100.00;102185.97;5103801;28;20076;-47
2023/10/01 06:18:41;;;;;;;0.00;0.00;;;;;;;15.56;100.00;102184.44;5102473;28;20357;-45
2023/10/01 06:21:09;;;;;;;0.00;0.00;;;;;;;15.57;100.00;102178.00;5099454;28;20484;-49
2023/10/01 06:23:48;;;;;;;0.00;0.00;;;;;;;15.62;100.00;102176.63;5101465;28;20481;-43
2023/10/01 06:26:14;;;;;;;0.00;0.00;;;;;;;15.74;100.00;102180.59;5110429;28;20121;-47
2023/10/01 06:28:41;;;;;;;0.00;0.00;;;;;;;15.78;100.00;102179.19;5111101;28;20130;-44
2023/10/01 06:31:06;;;;;;;0.00;0.00;;;;;;;15.76;100.00;102181.25;5110574;27;20476;-43
2023/10/01 06:33:35;;;;;;;0.00;0.00;;;;;;;15.87;100.00;102174.53;5103007;28;20035;-47
2023/10/01 06:36:16;;;;;;;0.00;0.00;;;;;;;16.13;100.00;102174.09;5106303;28;20126;-45
2023/10/01 06:38:44;;;;;;;0.00;0.00;;;;;;;16.37;100.00;102168.38;5105610;28;20110;-42
2023/10/01 06:41:16;;;;;;;0.00;0.00;;;;;;;16.46;100.00;102169.97;5106517;28;20070;-46
2023/10/01 06:43:48;;;;;;;0.00;0.00;;;;;;;16.34;100.00;102166.03;5105136;28;20028;-47
2023/10/01 06:46:19;;;;;;;0.00;0.00;;;;;;;16.08;100.00;102162.94;5106771;28;20080;-45
2023/10/01 06:48:48;;;;;;;0.00;0.00;;;;;;;16.05;100.00;102161.44;5102945;28;20032;-46
2023/10/01 06:51:21;;;;;;;0.00;0.00;;;;;;;16.04;100.00;102176.06;5105759;28;20043;-44
2023/10/01 06:53:47;;;;;;;0.00;0.00;;;;;;;15.94;100.00;102173.63;5103808;28;20020;-47
2023/10/01 06:56:19;;;;;;;0.00;0.00;;;;;;;16.04;100.00;102175.22;5102483;28;20046;-48
2023/10/01 06:59:12;;;;;;;0.00;0.00;;;;;;;16.14;100.00;102175.78;5104968;28;20031;-48
2023/10/01 07:01:34;;;;;;;0.00;0.00;;;;;;;16.08;100.00;102179.25;5104035;28;20055;-45
2023/10/01 07:04:09;;;;;;;0.00;0.00;;;;;;;16.05;100.00;102179.63;5107686;28;20026;-45
2023/10/01 07:06:36;;;;;;;0.00;0.00;;;;;;;16.08;100.00;102176.53;5108111;28;20114;-45
2023/10/01 07:09:06;;;;;;;0.00;0.00;;;;;;;16.19;100.00;102176.94;5102555;28;20031;-46
2023/10/01 07:11:33;;;;;;;0.00;0.00;;;;;;;16.27;100.00;102186.00;5107166;28;20055;-45
2023/10/01 07:14:04;;;;;;;0.00;0.00;;;;;;;16.32;100.00;102189.00;5104531;28;20024;-46
2023/10/01 07:16:36;;;;;;;0.00;0.00;;;;;;;16.41;100.00;102196.88;5108163;28;20418;-47
2023/10/01 07:19:11;;;;;;;0.00;0.00;;;;;;;16.51;100.00;102191.16;5107017;28;20039;-46
2023/10/01 07:21:41;;;;;;;0.00;0.00;;;;;;;16.97;100.00;102192.81;5108801;28;20054;-45
2023/10/01 07:24:12;;;;;;;0.00;0.00;;;;;;;17.39;100.00;102185.72;5103059;28;20050;-48
2023/10/01 07:26:41;;;;;;;0.00;0.00;;;;;;;18.08;100.00;102175.00;5106362;27;20040;-46
2023/10/01 07:29:07;;;;;;;0.00;0.00;;;;;;;18.95;100.00;102178.19;5106738;28;20078;-44
2023/10/01 07:31:35;;;;;;;0.00;0.00;;;;;;;19.23;100.00;102172.63;5106032;27;20059;-44
2023/10/01 07:34:12;;;;;;;0.00;0.00;;;;;;;19.65;100.00;102159.63;5100562;28;20466;-42
2023/10/01 07:36:39;;;;;;;0.00;0.00;;;;;;;20.26;100.00;102162.09;5107139;28;20158;-47
2023/10/01 07:39:04;;;;;;;0.00;0.00;;;;;;;20.29;100.00;102167.13;5106167;28;20032;-46
2023/10/01 07:41:37;;;;;;;0.00;0.00;;;;;;;20.43;100.00;102156.16;5107494;28;20026;-46
2023/10/01 07:44:08;;;;;;;0.00;0.00;;;;;;;19.89;100.00;102158.16;5107009;28;20031;-44
2023/10/01 07:46:33;;;;;;;0.00;0.00;;;;;;;18.92;100.00;102165.81;5106938;28;20031;-44
2023/10/01 07:49:00;;;;;;;0.00;0.00;;;;;;;18.63;100.00;102166.94;5103768;28;20030;-45
2023/10/01 07:51:30;;;;;;;0.00;0.00;;;;;;;18.54;100.00;102169.00;5106960;28;20110;-50
2023/10/01 07:54:02;;;;;;;0.00;0.00;;;;;;;18.26;100.00;102160.88;5106237;28;20053;-50
2023/10/01 07:56:28;;;;;;;0.00;0.00;;;;;;;18.29;100.00;102160.47;5106127;28;20477;-48
2023/10/01 08:01:38;;;;;;;0.00;0.00;;;;;;;18.04;100.00;102175.63;5106261;27;20309;-48
2023/10/01 08:06:49;;;;;;;0.00;0.00;;;;;;;17.66;100.00;102182.19;5106901;28;20423;-47
2023/10/01 08:09:15;;;;;;;0.00;0.00;;;;;;;17.76;100.00;102179.97;5103749;28;20038;-48
2023/10/01 08:11:58;;;;;;;0.00;0.00;;;;;;;18.01;100.00;102176.88;5101581;28;20106;-45
2023/10/01 08:14:27;;;;;;;0.00;0.00;;;;;;;18.20;100.00;102167.97;5103773;28;20024;-47
2023/10/01 08:16:56;;;;;;;0.00;0.00;;;;;;;18.09;100.00;102182.16;5105006;28;20119;-45
2023/10/01 08:19:22;;;;;;;0.00;0.00;;;;;;;18.24;100.00;102173.00;5104007;27;20414;-44
2023/10/01 08:21:50;;;;;;;0.00;0.00;;;;;;;18.81;100.00;102166.41;5102909;28;20042;-45
2023/10/01 08:24:19;;;;;;;0.00;0.00;;;;;;;19.19;100.00;102163.16;5106125;28;20031;-49
2023/10/01 08:26:57;;;;;;;0.00;0.00;;;;;;;19.64;100.00;102171.59;5105290;28;20423;-45
2023/10/01 08:32:11;;;;;;;0.00;0.00;;;;;;;19.70;100.00;102165.34;5101409;28;20524;-42
2023/10/01 08:35:01;;;;;;;0.00;0.00;;;;;;;20.06;100.00;102173.06;5103461;28;20351;-44
2023/10/01 08:37:22;;;;;;;0.00;0.00;;;;;;;20.31;100.00;102164.19;5100857;28;20430;-45
2023/10/01 08:39:48;;;;;;;0.00;0.00;;;;;;;20.80;100.00;102174.56;5100469;28;20043;-43
2023/10/01 08:42:16;;;;;;;0.00;0.00;;;;;;;21.25;100.00;102165.47;5097390;28;20492;-46
2023/10/01 08:44:54;;;;;;;0.00;0.00;;;;;;;21.89;100.00;102171.72;5101136;28;20031;-44
2023/10/01 08:47:21;;;;;;;0.00;0.00;;;;;;;22.38;100.00;102170.00;5102516;28;20089;-49
2023/10/01 08:49:53;;;;;;;0.00;0.00;;;;;;;22.31;100.00;102180.19;5101494;28;20418;-47
2023/10/01 08:52:25;;;;;;;0.00;0.00;;;;;;;22.78;100.00;102174.97;5099312;28;20035;-45
2023/10/01 08:54:53;;;;;;;0.00;0.00;;;;;;;22.18;100.00;102174.81;5099120;28;20062;-44
2023/10/01 08:57:36;;;;;;;0.00;0.00;;;;;;;22.44;100.00;102182.78;5102186;28;20042;-47
2023/10/01 09:00:17;;;;;;;0.00;0.00;;;;;;;22.35;100.00;102171.28;5101691;28;20058;-46
2023/10/01 09:02:43;;;;;;;0.00;0.00;;;;;;;21.89;100.00;102175.28;5104118;28;20035;-46
2023/10/01 09:05:09;;;;;;;0.00;0.00;;;;;;;21.50;100.00;102176.47;5103761;28;20885;-49
2023/10/01 09:07:41;;;;;;;0.00;0.00;;;;;;;20.94;100.00;102169.03;5094862;28;20035;-46
2023/10/01 09:10:09;;;;;;;0.00;0.00;;;;;;;20.59;100.00;102167.50;5097087;28;20089;-46
2023/10/01 09:12:35;;;;;;;0.00;0.00;;;;;;;20.20;100.00;102173.91;5100067;28;20039;-43
2023/10/01 09:15:04;;;;;;;0.00;0.00;;;;;;;19.84;100.00;102168.91;5102461;28;20043;-47
2023/10/01 09:17:40;;;;;;;0.00;0.00;;;;;;;19.80;100.00;102168.50;5101136;28;20038;-45
2023/10/01 09:20:06;;;;;;;0.00;0.00;;;;;;;19.87;100.00;102168.47;5096454;28;20039;-46
2023/10/01 09:25:16;;;;;;;0.00;0.00;;;;;;;19.68;100.00;102170.16;5102851;28;20551;-47
2023/10/01 09:27:57;;;;;;;0.00;0.00;;;;;;;19.90;100.00;102174.34;5098216;28;20085;-44
2023/10/01 09:30:26;;;;;;;0.00;0.00;;;;;;;20.08;100.00;102170.97;5100008;28;20470;-48
2023/10/01 09:32:55;;;;;;;0.00;0.00;;;;;;;20.19;100.00;102169.47;5096973;28;20059;-47
2023/10/01 09:35:30;;;;;;;0.00;0.00;;;;;;;20.21;100.00;102178.28;5098420;28;20053;-46
2023/10/01 09:38:18;;;;;;;0.00;0.00;;;;;;;20.28;100.00;102176.41;5104105;28;20495;-47
2023/10/01 09:40:45;;;;;;;0.00;0.00;;;;;;;20.23;100.00;102178.94;5106302;28;20028;-46
2023/10/01 09:43:18;;;;;;;0.00;0.00;;;;;;;20.22;100.00;102160.84;5106051;28;20069;-46
2023/10/01 09:45:48;;;;;;;0.00;0.00;;;;;;;20.12;100.00;102171.38;5106215;28;20028;-45
2023/10/01 09:48:29;;;;;;;0.00;0.00;;;;;;;20.26;100.00;102167.56;5106210;28;20086;-45
2023/10/01 09:51:14;;;;;;;0.00;0.00;;;;;;;20.25;100.00;102162.28;5103643;28;20031;-47
2023/10/01 09:53:43;;;;;;;0.00;0.00;;;;;;;20.34;100.00;102170.06;5106244;28;20027;-47
2023/10/01 09:56:12;;;;;;;0.00;0.00;;;;;;;20.33;100.00;102162.91;5107056;28;20109;-44
2023/10/01 09:58:46;;;;;;;0.00;0.00;;;;;;;20.51;100.00;102159.50;5104846;28;20027;-43
2023/10/01 10:01:13;;;;;;;0.00;0.00;;;;;;;20.45;100.00;102165.81;5105889;28;20510;-45
2023/10/01 10:03:39;;;;;;;0.00;0.00;;;;;;;20.46;100.00;102167.50;5106031;28;20036;-48
2023/10/01 10:06:08;;;;;;;0.00;0.00;;;;;;;20.58;100.00;102170.44;5106353;28;20046;-44
2023/10/01 10:08:38;;;;;;;0.00;0.00;;;;;;;20.51;100.00;102164.97;5106146;28;20061;-46
2023/10/01 10:11:06;;;;;;;0.00;0.00;;;;;;;20.52;100.00;102154.88;5103931;28;20028;-43
2023/10/01 10:13:57;;;;;;;0.00;0.00;;;;;;;20.62;100.00;102149.81;5105921;28;20431;-44
2023/10/01 10:16:29;;;;;;;0.00;0.00;;;;;;;20.77;100.00;102147.63;5106044;28;20478;-44
2023/10/01 10:19:23;;;;;;;0.00;0.00;;;;;;;20.86;100.00;102144.66;5105602;28;20031;-47
2023/10/01 10:22:05;;;;;;;0.00;0.00;;;;;;;20.85;100.00;102146.53;5103656;28;20024;-47
2023/10/01 10:24:31;;;;;;;0.00;0.00;;;;;;;20.97;100.00;102146.69;5104935;28;20032;-47
2023/10/01 10:27:03;;;;;;;0.00;0.00;;;;;;;21.05;100.00;102146.41;5106840;27;20034;-42
2023/10/01 10:29:46;;;;;;;0.00;0.00;;;;;;;21.15;100.00;102149.50;5109170;28;20027;-47
2023/10/01 10:32:24;;;;;;;0.00;0.00;;;;;;;21.08;100.00;102143.22;5109301;27;20477;-49
2023/10/01 10:35:03;;;;;;;;;;;;;;;21.19;100.00;102144.44;5109106;27;20032;-43
2023/10/01 10:37:35;;;;;;;0.00;0.00;;;;;;;21.18;100.00;102143.59;5108797;28;20019;-42
2023/10/01 10:40:44;;;;;;;0.00;0.00;;;;;;;21.19;100.00;102156.22;5107985;28;20020;-43
2023/10/01 10:42:56;;;;;;;0.00;0.00;;;;;;;21.26;100.00;102150.69;5105162;28;20043;-44
2023/10/01 10:45:23;;;;;;;0.00;0.00;;;;;;;21.26;100.00;102151.53;5106654;28;20035;-47
2023/10/01 10:47:59;;;;;;;0.00;0.00;;;;;;;21.32;100.00;102149.81;5108103;28;20107;-44
2023/10/01 10:50:48;;;;;;;0.00;0.00;;;;;;;21.41;100.00;102147.69;5108236;28;20039;-41
2023/10/01 10:53:22;;;;;;;0.00;0.00;;;;;;;21.49;100.00;102144.66;5108242;28;20032;-47
2023/10/01 10:56:04;;;;;;;0.00;0.00;;;;;;;21.66;100.00;102142.19;5108067;28;20036;-48
2023/10/01 10:58:39;;;;;;;0.00;0.00;;;;;;;21.79;100.00;102146.72;5107441;28;20031;-43
2023/10/01 11:01:43;;;;;;;0.00;0.00;;;;;;;21.90;100.00;102137.75;5106978;28;20142;-42
2023/10/01 11:03:56;;;;;;;0.00;0.00;;;;;;;21.89;100.00;102156.09;5107893;28;20032;-47
2023/10/01 11:06:44;;;;;;;0.00;0.00;;;;;;;21.81;100.00;102144.59;5107683;28;20027;-47
2023/10/01 11:09:24;;;;;;;0.00;0.00;;;;;;;21.87;100.00;102135.47;5108317;28;20039;-46
2023/10/01 11:11:51;;;;;;;0.00;0.00;;;;;;;21.94;100.00;102141.72;5106661;28;20019;-45
2023/10/01 11:14:17;;;;;;;0.00;0.00;;;;;;;21.94;100.00;102141.72;5106005;28;20030;-43
2023/10/01 11:16:47;;;;;;;0.00;0.00;;;;;;;21.83;100.00;102140.56;5106932;28;20635;-47
2023/10/01 11:19:13;;;;;;;0.00;0.00;;;;;;;22.02;100.00;102140.59;5108313;28;20501;-44
2023/10/01 11:21:55;;;;;;;0.00;0.00;;;;;;;22.11;100.00;102136.47;5108166;28;20113;-44
2023/10/01 11:24:25;;;;;;;0.00;0.00;;;;;;;21.99;100.00;102139.16;5105697;28;20035;-45
2023/10/01 11:27:15;;;;;;;0.00;0.00;;;;;;;22.06;100.00;102145.38;5106597;27;20035;-44
2023/10/01 11:30:13;;;;;;;0.00;0.00;;;;;;;22.26;100.00;102144.38;5107931;27;20104;-44
2023/10/01 11:32:58;;;;;;;0.00;0.00;;;;;;;22.64;100.00;102141.34;5103631;28;20122;-44
2023/10/01 11:35:31;;;;;;;0.00;0.00;;;;;;;23.05;100.00;102144.44;5105455;28;20468;-44
2023/10/01 11:38:12;;;;;;;0.00;0.00;;;;;;;23.71;100.00;102140.63;5107017;28;20124;-45
2023/10/01 11:43:32;;;;;;;0.00;0.00;;;;;;;23.75;100.00;102143.75;5107372;28;20092;-46
2023/10/01 11:46:23;;;;;;;0.00;0.00;;;;;;;24.17;100.00;102133.47;5106981;27;20124;-46
2023/10/01 11:48:56;;;;;;;0.00;0.00;;;;;;;24.13;100.00;102137.75;5107183;28;20031;-46
2023/10/01 11:51:44;;;;;;;0.00;0.00;;;;;;;23.97;100.00;102138.50;5104814;28;20098;-44
2023/10/01 11:54:16;;;;;;;0.00;0.00;;;;;;;24.73;100.00;102142.91;5106758;28;20125;-45
2023/10/01 11:57:05;;;;;;;0.00;0.00;;;;;;;24.43;100.00;102126.56;5108675;27;20031;-44
2023/10/01 11:59:42;;;;;;;0.00;0.00;;;;;;;24.67;100.00;102124.63;5105861;28;20118;-44
2023/10/01 12:02:24;;;;;;;0.00;0.00;;;;;;;24.44;100.00;102128.28;5106430;28;20132;-46
2023/10/01 12:04:59;;;;;;;0.00;0.00;;;;;;;24.60;100.00;102118.41;5104830;28;20115;-45
2023/10/01 12:07:31;;;;;;;0.00;0.00;;;;;;;24.13;100.00;102124.00;5105581;28;20472;-45
2023/10/01 12:09:58;;;;;;;0.00;0.00;;;;;;;24.25;100.00;102119.34;5106083;27;20039;-47